Time;durP1;ratioP1;P1;durP2;ratioP2;P2;SDS_P1;SDS_P2;PMS_P1;PMS_P2;Temp;Humidity;BMP_temperature;BMP_pressure;BME280_temperature;BME280_humidity;BME280_pressure;Samples;Min_cycle;Max_cycle;Signal;HPM_P1;HPM_P2
2021/12/01 00:00:58;;;;;;;37.95;14.85;;;8.50;99.90;;;;;;4980891;28;20488;-78
2021/12/01 00:03:24;;;;;;;40.92;14.88;;;8.50;99.90;;;;;;4984299;28;20073;-78
2021/12/01 00:05:50;;;;;;;37.97;14.48;;;8.60;99.90;;;;;;4978360;28;20558;-79
2021/12/01 00:08:16;;;;;;;39.05;15.77;;;8.60;99.90;;;;;;4982579;28;20035;-79
2021/12/01 00:10:43;;;;;;;38.53;15.60;;;8.60;99.90;;;;;;4968616;28;20041;-79
2021/12/01 00:13:13;;;;;;;39.85;16.13;;;8.60;99.90;;;;;;4995878;28;20060;-78
2021/12/01 00:15:40;;;;;;;43.25;17.42;;;8.70;99.90;;;;;;4980737;28;20041;-78
2021/12/01 00:18:06;;;;;;;41.65;17.00;;;8.70;99.90;;;;;;4980328;28;20152;-78
2021/12/01 00:20:32;;;;;;;45.88;18.65;;;8.80;99.90;;;;;;4983312;28;20042;-79
2021/12/01 00:22:59;;;;;;;48.78;19.88;;;8.80;99.90;;;;;;4992541;28;20046;-79
2021/12/01 00:25:27;;;;;;;43.60;20.30;;;8.80;99.90;;;;;;4984861;28;20039;-79
2021/12/01 00:27:53;;;;;;;55.92;23.85;;;8.90;99.90;;;;;;4972841;28;20034;-79
2021/12/01 00:30:20;;;;;;;55.55;23.95;;;8.90;99.90;;;;;;4988961;28;20079;-79
2021/12/01 00:32:46;;;;;;;55.95;24.98;;;9.00;99.90;;;;;;4986203;28;20043;-78
2021/12/01 00:35:12;;;;;;;54.22;24.25;;;8.90;99.90;;;;;;4985070;28;20122;-78
2021/12/01 00:37:38;;;;;;;67.18;27.90;;;9.00;99.90;;;;;;4985954;28;20468;-78
2021/12/01 00:40:06;;;;;;;60.40;27.60;;;9.00;99.90;;;;;;4973172;28;20512;-78
2021/12/01 00:42:32;;;;;;;54.70;26.70;;;9.00;99.90;;;;;;4976484;28;20046;-78
2021/12/01 00:45:01;;;;;;;67.43;28.67;;;9.00;99.90;;;;;;4987214;28;20037;-80
2021/12/01 00:47:49;;;;;;;46.95;24.55;;;9.10;99.90;;;;;;4975690;28;20034;-79
2021/12/01 00:50:22;;;;;;;58.15;27.48;;;9.00;99.90;;;;;;4983074;28;20046;-78
2021/12/01 00:52:48;;;;;;;56.80;26.95;;;9.10;99.90;;;;;;4985934;28;20045;-78
2021/12/01 00:55:14;;;;;;;57.97;26.83;;;9.10;99.90;;;;;;4987765;28;20050;-78
2021/12/01 00:57:39;;;;;;;56.17;26.45;;;9.10;99.90;;;;;;4969879;28;20413;-78
2021/12/01 01:00:07;;;;;;;53.30;25.25;;;9.10;99.90;;;;;;4983147;28;20527;-78
2021/12/01 01:02:33;;;;;;;53.47;24.50;;;9.10;99.90;;;;;;4995839;28;20112;-78
2021/12/01 01:04:59;;;;;;;50.20;25.10;;;9.10;99.90;;;;;;4988666;28;20083;-79
2021/12/01 01:07:24;;;;;;;46.35;22.52;;;9.10;99.90;;;;;;4977568;28;20034;-79
2021/12/01 01:09:50;;;;;;;43.22;23.13;;;9.10;99.90;;;;;;4960317;28;20399;-78
2021/12/01 01:18:08;;;;;;;46.10;22.30;;;9.10;99.90;;;;;;4917770;29;20083;-78
2021/12/01 01:20:35;;;;;;;36.67;20.88;;;9.10;99.90;;;;;;4928602;29;20051;-78
2021/12/01 01:23:01;;;;;;;41.95;21.73;;;9.10;99.90;;;;;;4954856;28;20091;-78
2021/12/01 01:25:28;;;;;;;33.95;19.55;;;9.20;99.90;;;;;;4982966;28;20049;-76
2021/12/01 01:27:54;;;;;;;35.03;19.05;;;9.20;99.90;;;;;;4974782;28;20039;-76
2021/12/01 01:30:19;;;;;;;32.97;19.65;;;9.10;99.90;;;;;;4981666;28;20039;-76
2021/12/01 01:32:45;;;;;;;36.20;20.08;;;9.20;99.90;;;;;;4982951;28;20031;-77
2021/12/01 01:35:12;;;;;;;28.60;17.58;;;9.20;99.90;;;;;;4970725;28;20129;-77
2021/12/01 01:37:39;;;;;;;28.25;16.73;;;9.30;99.90;;;;;;4979322;28;20049;-76
2021/12/01 01:40:05;;;;;;;27.45;16.35;;;9.20;99.90;;;;;;4984450;28;20460;-76
2021/12/01 01:42:31;;;;;;;25.48;15.40;;;9.20;99.90;;;;;;4969369;28;20488;-76
2021/12/01 01:44:56;;;;;;;24.95;13.40;;;9.20;99.90;;;;;;4978386;28;20046;-76
2021/12/01 01:47:22;;;;;;;23.92;14.38;;;9.30;99.90;;;;;;4983240;28;20030;-76
2021/12/01 01:52:34;;;;;;;23.67;12.55;;;9.30;99.90;;;;;;4963174;28;20053;-77
2021/12/01 01:55:00;;;;;;;21.30;10.98;;;9.30;99.90;;;;;;4982728;28;20078;-76
2021/12/01 01:57:26;;;;;;;17.75;10.27;;;9.30;99.90;;;;;;4979693;28;20042;-76
2021/12/01 01:59:51;;;;;;;18.25;10.25;;;9.30;99.90;;;;;;4984873;28;20458;-77
2021/12/01 02:02:18;;;;;;;16.58;9.95;;;9.30;99.90;;;;;;4992234;28;20121;-76
2021/12/01 02:04:44;;;;;;;18.17;8.65;;;9.30;99.90;;;;;;4974888;28;20066;-76
2021/12/01 02:07:09;;;;;;;20.90;8.57;;;9.30;99.90;;;;;;4988217;28;20397;-76
2021/12/01 02:09:35;;;;;;;15.13;8.07;;;9.40;99.90;;;;;;4989769;28;20083;-76
2021/12/01 02:12:02;;;;;;;13.32;6.80;;;9.30;99.90;;;;;;4987880;28;20033;-77
2021/12/01 02:14:29;;;;;;;16.77;6.20;;;9.40;99.90;;;;;;4982191;28;20034;-77
2021/12/01 02:16:57;;;;;;;11.18;4.70;;;9.40;99.90;;;;;;4963354;28;20050;-77
2021/12/01 02:19:23;;;;;;;10.52;3.92;;;9.40;99.90;;;;;;4982634;28;20508;-77
2021/12/01 02:21:49;;;;;;;9.13;4.00;;;9.40;99.90;;;;;;4984799;28;20066;-76
2021/12/01 02:24:17;;;;;;;9.18;3.20;;;9.40;99.90;;;;;;4962119;28;20121;-77
2021/12/01 02:26:49;;;;;;;7.38;3.05;;;9.40;99.90;;;;;;4973052;28;20135;-77
2021/12/01 02:29:18;;;;;;;5.10;2.58;;;9.40;99.90;;;;;;4988233;28;20114;-77
2021/12/01 02:31:44;;;;;;;4.03;1.88;;;9.30;99.90;;;;;;4981281;28;20034;-77
2021/12/01 02:34:13;;;;;;;4.88;1.85;;;9.40;99.90;;;;;;4961355;28;20035;-77
2021/12/01 02:36:39;;;;;;;5.13;1.80;;;9.40;99.90;;;;;;4961895;28;20042;-77
2021/12/01 02:39:13;;;;;;;5.95;2.20;;;9.40;99.90;;;;;;4987936;28;20043;-75
2021/12/01 02:41:39;;;;;;;5.65;2.28;;;9.40;99.90;;;;;;4979773;28;20471;-76
2021/12/01 02:44:06;;;;;;;9.40;2.40;;;9.40;99.90;;;;;;4983915;28;20165;-76
2021/12/01 02:46:33;;;;;;;6.57;1.92;;;9.50;99.90;;;;;;4982247;28;20079;-76
2021/12/01 02:49:00;;;;;;;6.03;2.00;;;9.50;99.90;;;;;;4994402;28;20040;-75
2021/12/01 02:51:31;;;;;;;6.72;2.05;;;9.50;99.90;;;;;;4978051;28;20039;-76
2021/12/01 02:53:57;;;;;;;3.38;1.60;;;9.50;99.90;;;;;;4984139;28;20436;-77
2021/12/01 02:56:23;;;;;;;4.07;1.63;;;9.50;99.90;;;;;;4972810;28;20085;-76
2021/12/01 02:58:50;;;;;;;5.28;1.67;;;9.50;99.90;;;;;;4983182;28;20415;-76
2021/12/01 03:01:19;;;;;;;4.57;1.80;;;9.60;99.90;;;;;;4982902;28;20052;-76
2021/12/01 03:03:45;;;;;;;7.80;1.80;;;9.60;99.90;;;;;;4988980;28;20748;-77
2021/12/01 03:06:11;;;;;;;9.13;1.83;;;9.60;99.90;;;;;;4985880;28;20034;-76
2021/12/01 03:08:40;;;;;;;6.90;2.83;;;9.60;99.90;;;;;;4993572;28;20038;-76
2021/12/01 03:11:06;;;;;;;6.28;2.30;;;9.60;99.90;;;;;;4971359;28;20030;-76
2021/12/01 03:13:32;;;;;;;9.38;2.10;;;9.70;99.90;;;;;;4983171;28;20125;-76
2021/12/01 03:15:58;;;;;;;7.80;1.85;;;9.70;99.90;;;;;;4989023;28;20118;-75
2021/12/01 03:18:24;;;;;;;7.57;2.53;;;9.70;99.90;;;;;;4988040;28;20035;-75
2021/12/01 03:20:51;;;;;;;4.95;2.03;;;9.60;99.90;;;;;;4981768;28;20050;-75
2021/12/01 03:23:17;;;;;;;8.80;2.30;;;9.60;99.90;;;;;;4985097;28;20050;-76
2021/12/01 03:25:43;;;;;;;8.82;2.10;;;9.60;99.90;;;;;;4990389;28;20116;-75
2021/12/01 03:28:09;;;;;;;7.28;2.47;;;9.70;99.90;;;;;;4989289;28;20155;-76
2021/12/01 03:30:37;;;;;;;6.38;2.00;;;9.60;99.90;;;;;;4979660;28;20031;-77
2021/12/01 03:33:09;;;;;;;11.40;2.47;;;9.70;99.90;;;;;;4981902;28;20603;-75
2021/12/01 03:35:39;;;;;;;12.15;2.58;;;9.70;99.90;;;;;;4983511;28;20030;-77
2021/12/01 03:38:06;;;;;;;7.13;2.20;;;9.70;99.90;;;;;;4994000;28;20143;-76
2021/12/01 03:40:32;;;;;;;8.75;1.65;;;9.70;99.90;;;;;;4965915;28;20070;-78
2021/12/01 03:42:57;;;;;;;11.25;2.08;;;9.70;99.90;;;;;;4988209;28;20096;-76
2021/12/01 03:45:23;;;;;;;9.85;1.85;;;9.60;99.90;;;;;;4989290;28;20496;-76
2021/12/01 03:47:49;;;;;;;8.30;1.75;;;9.60;99.90;;;;;;4989066;28;20511;-78
2021/12/01 03:50:15;;;;;;;9.95;2.40;;;9.60;99.90;;;;;;4992170;28;20046;-76
2021/12/01 03:52:41;;;;;;;12.98;2.53;;;9.60;99.90;;;;;;4973498;28;20492;-77
2021/12/01 03:55:08;;;;;;;8.75;2.45;;;9.60;99.90;;;;;;4987565;28;20536;-76
2021/12/01 03:57:34;;;;;;;12.10;2.22;;;9.60;99.90;;;;;;4994314;28;20152;-79
2021/12/01 04:00:00;;;;;;;15.10;2.70;;;9.60;99.90;;;;;;4996042;28;20092;-77
2021/12/01 04:02:25;;;;;;;14.05;2.80;;;9.70;99.90;;;;;;4981597;28;20438;-77
2021/12/01 04:04:52;;;;;;;15.18;3.17;;;9.60;99.90;;;;;;4991838;28;20067;-78
2021/12/01 04:07:17;;;;;;;16.52;3.35;;;9.60;99.90;;;;;;4980964;28;20042;-77
2021/12/01 04:09:44;;;;;;;12.25;2.50;;;9.50;99.90;;;;;;4985403;28;20492;-77
2021/12/01 04:12:10;;;;;;;14.82;2.80;;;9.50;99.90;;;;;;4991966;28;20504;-78
2021/12/01 04:14:37;;;;;;;15.52;3.00;;;9.40;99.90;;;;;;4986865;28;20065;-76
2021/12/01 04:17:03;;;;;;;14.18;2.67;;;9.40;99.90;;;;;;4991422;28;20042;-77
2021/12/01 04:19:29;;;;;;;18.55;3.15;;;9.40;99.90;;;;;;4990059;28;20076;-77
2021/12/01 04:21:55;;;;;;;13.02;2.80;;;9.40;99.90;;;;;;4965455;28;20128;-77
2021/12/01 04:24:23;;;;;;;13.73;2.40;;;9.40;99.90;;;;;;4985142;28;20039;-77
2021/12/01 04:26:49;;;;;;;12.52;2.38;;;9.40;99.90;;;;;;4986507;28;20038;-78
2021/12/01 04:29:14;;;;;;;11.27;2.20;;;9.40;99.90;;;;;;4987801;28;20157;-78
2021/12/01 04:31:40;;;;;;;10.02;2.55;;;9.40;99.90;;;;;;4988773;28;20035;-78
2021/12/01 04:34:07;;;;;;;10.07;2.20;;;9.40;99.90;;;;;;4987211;28;20115;-76
2021/12/01 04:36:37;;;;;;;10.65;2.70;;;9.40;99.90;;;;;;4991652;28;20043;-78
2021/12/01 04:39:05;;;;;;;9.23;2.05;;;9.30;99.90;;;;;;4988559;28;20086;-77
2021/12/01 04:41:38;;;;;;;10.63;2.10;;;9.40;99.90;;;;;;4989998;28;20410;-76
2021/12/01 04:44:08;;;;;;;9.50;2.00;;;9.40;99.90;;;;;;4982241;28;20128;-77
2021/12/01 04:46:40;;;;;;;7.75;2.10;;;9.40;99.90;;;;;;4994452;28;20093;-78
2021/12/01 04:49:07;;;;;;;5.13;2.22;;;9.40;99.90;;;;;;4988444;28;20089;-77
2021/12/01 04:51:33;;;;;;;4.95;2.08;;;9.40;99.90;;;;;;4987838;28;20035;-76
2021/12/01 04:53:59;;;;;;;5.07;2.70;;;9.40;99.90;;;;;;4987463;28;20411;-78
2021/12/01 04:56:25;;;;;;;5.20;2.75;;;9.40;99.90;;;;;;4993011;28;20042;-76
2021/12/01 04:58:50;;;;;;;5.80;3.28;;;9.40;99.90;;;;;;4988369;28;20101;-75
2021/12/01 05:01:17;;;;;;;5.03;3.38;;;9.40;99.90;;;;;;4993372;28;20037;-76
2021/12/01 05:03:43;;;;;;;5.95;3.50;;;9.40;99.90;;;;;;4985922;28;20412;-76
2021/12/01 05:06:12;;;;;;;8.02;3.55;;;9.30;99.90;;;;;;4994338;28;20074;-76
2021/12/01 05:08:37;;;;;;;3.30;2.55;;;9.30;99.90;;;;;;4988286;28;20404;-77
2021/12/01 05:11:03;;;;;;;2.33;1.73;;;9.30;99.90;;;;;;4994972;28;20044;-81
2021/12/01 05:13:29;;;;;;;3.10;2.20;;;9.30;99.90;;;;;;4989961;28;20817;-79
2021/12/01 05:15:54;;;;;;;2.22;1.48;;;9.30;99.90;;;;;;4990612;28;20039;-79
2021/12/01 05:18:20;;;;;;;2.90;1.30;;;9.30;99.90;;;;;;4996174;28;20043;-78
2021/12/01 05:20:45;;;;;;;1.92;1.20;;;9.20;99.90;;;;;;4995318;28;20133;-79
2021/12/01 05:23:15;;;;;;;1.65;1.20;;;9.30;99.90;;;;;;5001066;28;20090;-79
2021/12/01 05:25:41;;;;;;;2.05;1.23;;;9.20;99.90;;;;;;4988488;28;20656;-80
2021/12/01 05:28:07;;;;;;;2.10;1.00;;;9.20;99.90;;;;;;4991083;28;20030;-78
2021/12/01 05:30:33;;;;;;;2.08;1.17;;;9.20;99.90;;;;;;4993987;28;20054;-82
2021/12/01 05:33:04;;;;;;;2.28;1.00;;;9.20;99.90;;;;;;4989422;28;20050;-79
2021/12/01 05:35:30;;;;;;;1.50;1.00;;;9.20;99.90;;;;;;4988518;28;20042;-81
2021/12/01 05:37:57;;;;;;;3.17;1.30;;;9.20;99.90;;;;;;4994935;28;20038;-80
2021/12/01 05:40:23;;;;;;;1.70;1.20;;;9.10;99.90;;;;;;4981680;28;20042;-80
2021/12/01 05:42:49;;;;;;;2.35;1.30;;;9.20;99.90;;;;;;4988971;28;20042;-81
2021/12/01 05:45:14;;;;;;;2.50;1.73;;;9.10;99.90;;;;;;4991968;28;20501;-79
2021/12/01 05:47:40;;;;;;;2.25;1.70;;;9.10;99.90;;;;;;4986458;28;20046;-79
2021/12/01 05:50:06;;;;;;;2.35;1.80;;;9.10;99.90;;;;;;4995261;28;20038;-81
2021/12/01 05:52:32;;;;;;;3.17;1.80;;;9.10;99.90;;;;;;5003204;28;20066;-79
2021/12/01 05:54:57;;;;;;;2.45;1.83;;;9.10;99.90;;;;;;4992856;28;20109;-80
2021/12/01 05:57:23;;;;;;;3.10;2.00;;;9.00;99.90;;;;;;4990247;28;20096;-79
2021/12/01 05:59:48;;;;;;;3.53;2.50;;;9.00;99.90;;;;;;4995440;28;20053;-81
2021/12/01 06:02:15;;;;;;;3.88;2.60;;;9.10;99.90;;;;;;4974875;28;20035;-79
2021/12/01 06:04:40;;;;;;;4.13;2.38;;;9.00;99.90;;;;;;4988892;28;20030;-81
2021/12/01 06:07:06;;;;;;;3.13;2.40;;;9.00;99.90;;;;;;4984683;28;20034;-80
2021/12/01 06:09:31;;;;;;;4.13;2.38;;;9.00;99.90;;;;;;4991861;28;20042;-79
2021/12/01 06:11:57;;;;;;;2.95;2.13;;;9.00;99.90;;;;;;4988373;28;20042;-79
2021/12/01 06:14:23;;;;;;;2.90;2.30;;;9.00;99.90;;;;;;4988026;28;20039;-79
2021/12/01 06:16:48;;;;;;;3.85;3.05;;;9.00;99.90;;;;;;4995710;28;20165;-78
2021/12/01 06:19:14;;;;;;;2.72;2.10;;;8.90;99.90;;;;;;4996458;28;20054;-79
2021/12/01 06:21:40;;;;;;;5.35;2.70;;;9.00;99.90;;;;;;4999566;28;20556;-80
2021/12/01 06:24:05;;;;;;;3.30;2.15;;;9.00;99.90;;;;;;4979714;28;20045;-80
2021/12/01 06:26:31;;;;;;;4.28;2.10;;;9.00;99.90;;;;;;4969900;28;20047;-79
2021/12/01 06:28:56;;;;;;;3.30;1.90;;;8.90;99.90;;;;;;4982272;28;20039;-81
2021/12/01 06:31:22;;;;;;;3.03;2.00;;;8.90;99.90;;;;;;4994429;28;20026;-81
2021/12/01 06:33:48;;;;;;;2.78;1.88;;;8.90;99.90;;;;;;4987453;28;20123;-79
2021/12/01 06:36:14;;;;;;;2.15;1.70;;;8.90;99.90;;;;;;4979665;28;20043;-81
2021/12/01 06:38:41;;;;;;;2.42;1.90;;;8.80;99.90;;;;;;4992197;28;20031;-80
2021/12/01 06:41:08;;;;;;;3.40;2.20;;;8.80;99.90;;;;;;4983826;28;20110;-78
2021/12/01 06:43:33;;;;;;;2.97;2.25;;;8.80;99.90;;;;;;4978922;28;20110;-79
2021/12/01 06:45:59;;;;;;;2.67;2.17;;;8.70;99.90;;;;;;4987409;28;20038;-80
2021/12/01 06:48:25;;;;;;;2.65;2.13;;;8.80;99.90;;;;;;4983085;28;20039;-79
2021/12/01 06:50:50;;;;;;;2.70;2.10;;;8.70;99.90;;;;;;4984505;28;20039;-80
2021/12/01 06:53:16;;;;;;;2.70;2.30;;;8.70;99.90;;;;;;4988381;28;20041;-79
2021/12/01 06:55:42;;;;;;;3.10;2.80;;;8.70;99.90;;;;;;4977798;28;20034;-78
2021/12/01 06:58:07;;;;;;;3.10;2.63;;;8.70;99.90;;;;;;4983659;28;20077;-80
2021/12/01 07:00:33;;;;;;;3.95;3.08;;;8.70;99.90;;;;;;4986851;28;20120;-80
2021/12/01 07:02:58;;;;;;;3.95;3.30;;;8.70;99.90;;;;;;4982178;28;20125;-80
2021/12/01 07:05:24;;;;;;;4.75;2.45;;;8.70;99.90;;;;;;4996123;28;20061;-80
2021/12/01 07:07:49;;;;;;;3.50;2.78;;;8.70;99.90;;;;;;4985064;28;20041;-79
2021/12/01 07:10:15;;;;;;;3.63;2.40;;;8.70;99.90;;;;;;4963261;28;20073;-82
2021/12/01 07:12:42;;;;;;;3.20;2.20;;;8.70;99.90;;;;;;4979601;28;20077;-80
2021/12/01 07:15:09;;;;;;;3.13;2.50;;;8.60;99.90;;;;;;4976885;28;20045;-80
2021/12/01 07:17:35;;;;;;;4.13;2.28;;;8.60;99.90;;;;;;4987734;28;20042;-80
2021/12/01 07:20:00;;;;;;;3.67;2.75;;;8.70;99.90;;;;;;4996266;28;20574;-82
2021/12/01 07:22:26;;;;;;;3.75;2.80;;;8.60;99.90;;;;;;4983489;28;20459;-80
2021/12/01 07:24:51;;;;;;;4.47;3.33;;;8.60;99.90;;;;;;4990613;28;20050;-82
2021/12/01 07:27:17;;;;;;;6.65;3.20;;;8.70;99.90;;;;;;4982346;28;20038;-80
2021/12/01 07:29:45;;;;;;;3.92;3.17;;;8.70;99.90;;;;;;4989490;28;20125;-79
2021/12/01 07:32:11;;;;;;;6.07;4.10;;;8.70;99.90;;;;;;4978934;28;20066;-79
2021/12/01 07:34:43;;;;;;;6.93;3.28;;;8.70;99.90;;;;;;4968090;28;20094;-79
2021/12/01 07:37:10;;;;;;;4.50;3.28;;;8.70;99.90;;;;;;4984305;28;20038;-80
2021/12/01 07:39:36;;;;;;;4.00;3.17;;;8.70;99.90;;;;;;4988888;28;20042;-80
2021/12/01 07:42:02;;;;;;;4.28;3.35;;;8.70;99.90;;;;;;4972280;28;20037;-81
2021/12/01 07:44:27;;;;;;;4.95;3.72;;;8.70;99.90;;;;;;4980483;28;20085;-79
2021/12/01 07:46:53;;;;;;;6.07;3.95;;;8.70;99.90;;;;;;4981850;28;20038;-79
2021/12/01 07:49:19;;;;;;;5.38;3.47;;;8.70;99.90;;;;;;4994607;28;20065;-82
2021/12/01 07:51:45;;;;;;;6.97;4.30;;;8.80;99.90;;;;;;4997792;28;20045;-81
2021/12/01 07:54:11;;;;;;;5.35;4.25;;;8.80;99.90;;;;;;4995854;28;20093;-80
2021/12/01 07:56:36;;;;;;;5.68;4.10;;;8.80;99.90;;;;;;4978959;28;20038;-81
2021/12/01 07:59:02;;;;;;;7.10;4.55;;;8.90;99.90;;;;;;4999543;28;20041;-80
2021/12/01 08:01:28;;;;;;;6.85;4.60;;;8.90;99.90;;;;;;4995802;28;20050;-80
2021/12/01 08:03:54;;;;;;;5.95;3.85;;;9.00;99.90;;;;;;4994082;28;20106;-81
2021/12/01 08:06:20;;;;;;;7.53;4.70;;;8.90;99.90;;;;;;4988451;28;20058;-80
2021/12/01 08:08:45;;;;;;;6.10;3.97;;;8.90;99.90;;;;;;4992994;28;20126;-80
2021/12/01 08:11:11;;;;;;;6.22;4.05;;;8.90;99.90;;;;;;4983058;28;20081;-81
2021/12/01 08:13:38;;;;;;;5.90;4.10;;;8.90;99.90;;;;;;4981175;28;20093;-81
2021/12/01 08:16:03;;;;;;;7.40;3.80;;;8.90;99.90;;;;;;4989089;28;20038;-83
2021/12/01 08:18:29;;;;;;;5.25;3.90;;;8.90;99.90;;;;;;4992184;28;20050;-81
2021/12/01 08:20:55;;;;;;;5.60;4.18;;;8.90;99.90;;;;;;4973270;28;20527;-80
2021/12/01 08:23:20;;;;;;;6.57;4.15;;;8.90;99.90;;;;;;4996063;28;20420;-81
2021/12/01 08:25:46;;;;;;;9.35;4.70;;;8.90;99.90;;;;;;4995478;28;20045;-79
2021/12/01 08:28:12;;;;;;;6.88;4.50;;;8.90;99.90;;;;;;4992876;28;20108;-81
2021/12/01 08:30:37;;;;;;;7.07;4.30;;;9.00;99.90;;;;;;4993410;28;20034;-80
2021/12/01 08:33:03;;;;;;;6.43;3.97;;;8.90;99.90;;;;;;4983592;28;20488;-83
2021/12/01 08:35:28;;;;;;;8.18;3.78;;;9.00;99.90;;;;;;4961669;28;20522;-83
2021/12/01 08:37:55;;;;;;;5.63;3.00;;;9.00;99.90;;;;;;4977176;28;20039;-82
2021/12/01 08:40:20;;;;;;;5.63;2.90;;;9.00;99.90;;;;;;4965004;28;20044;-81
2021/12/01 08:42:46;;;;;;;5.15;2.92;;;9.00;99.90;;;;;;4986355;28;20034;-82
2021/12/01 08:45:12;;;;;;;7.38;2.60;;;8.90;99.90;;;;;;4986974;28;20116;-82
2021/12/01 08:47:38;;;;;;;7.50;2.33;;;9.00;99.90;;;;;;4976122;28;20291;-82
2021/12/01 08:50:07;;;;;;;7.57;2.55;;;8.90;99.90;;;;;;4976963;28;20042;-82
2021/12/01 08:52:33;;;;;;;10.90;2.03;;;8.90;99.90;;;;;;4974686;28;20039;-81
2021/12/01 08:54:59;;;;;;;9.88;1.90;;;8.90;99.90;;;;;;4994132;28;20034;-79
2021/12/01 08:57:24;;;;;;;10.13;2.13;;;8.90;99.90;;;;;;4974266;28;20409;-81
2021/12/01 08:59:50;;;;;;;6.60;1.52;;;8.90;99.90;;;;;;4975170;28;20088;-83
2021/12/01 09:02:17;;;;;;;7.07;1.50;;;9.00;99.90;;;;;;4974572;28;20140;-80
2021/12/01 09:04:43;;;;;;;11.23;2.03;;;9.00;99.90;;;;;;4987888;28;20038;-81
2021/12/01 09:07:08;;;;;;;9.55;1.73;;;9.00;99.90;;;;;;4989923;28;20046;-80
2021/12/01 09:09:34;;;;;;;8.73;1.63;;;9.00;99.90;;;;;;4980336;28;20042;-81
2021/12/01 09:12:00;;;;;;;11.80;1.73;;;9.00;99.90;;;;;;4984957;28;20135;-81
2021/12/01 09:14:26;;;;;;;7.82;1.30;;;9.00;99.90;;;;;;4974202;28;20058;-79
2021/12/01 09:16:55;;;;;;;9.80;1.40;;;8.90;99.90;;;;;;4973612;28;20046;-81
2021/12/01 09:19:21;;;;;;;7.32;1.27;;;8.90;99.90;;;;;;4975385;28;20176;-81
2021/12/01 09:21:48;;;;;;;6.00;1.40;;;9.00;99.90;;;;;;4975347;28;20043;-80
2021/12/01 09:24:15;;;;;;;11.40;1.83;;;9.00;99.90;;;;;;4974823;28;20043;-80
2021/12/01 09:26:42;;;;;;;7.22;1.02;;;8.90;99.90;;;;;;4976075;28;20039;-79
2021/12/01 09:29:07;;;;;;;8.30;1.05;;;8.80;99.90;;;;;;4976287;28;20091;-81
2021/12/01 09:31:33;;;;;;;7.57;1.25;;;8.70;99.90;;;;;;4975952;28;20081;-81
2021/12/01 09:33:59;;;;;;;7.47;1.17;;;8.60;99.90;;;;;;4973733;28;20039;-81
2021/12/01 09:36:25;;;;;;;7.32;1.27;;;8.60;99.90;;;;;;4974603;28;20035;-80
2021/12/01 09:38:50;;;;;;;8.43;1.70;;;8.50;99.90;;;;;;4993920;28;20043;-80
2021/12/01 09:41:17;;;;;;;8.05;1.50;;;8.60;99.90;;;;;;4967516;28;20043;-81
2021/12/01 09:43:42;;;;;;;7.82;1.48;;;8.60;99.90;;;;;;4986271;28;20066;-80
2021/12/01 09:46:09;;;;;;;4.85;0.90;;;8.60;99.90;;;;;;4982765;28;20047;-81
2021/12/01 09:48:40;;;;;;;9.85;1.42;;;8.60;99.90;;;;;;4963195;28;20520;-81
2021/12/01 09:51:06;;;;;;;7.47;1.10;;;8.60;99.90;;;;;;4979508;28;20062;-80
2021/12/01 09:53:33;;;;;;;7.07;1.05;;;8.60;99.90;;;;;;4978281;28;20043;-80
2021/12/01 09:55:59;;;;;;;8.40;1.23;;;8.50;99.90;;;;;;4979015;28;20095;-80
2021/12/01 09:58:31;;;;;;;9.23;1.50;;;8.50;99.90;;;;;;4979436;28;20061;-82
2021/12/01 10:01:09;;;;;;;9.00;1.23;;;8.60;99.90;;;;;;4979559;28;20042;-81
2021/12/01 10:03:35;;;;;;;9.38;1.40;;;8.60;99.90;;;;;;4978416;28;20039;-81
2021/12/01 10:06:03;;;;;;;9.07;1.60;;;8.60;99.90;;;;;;4979195;28;20039;-80
2021/12/01 10:08:36;;;;;;;11.77;2.05;;;8.70;99.90;;;;;;4979153;28;20412;-81
2021/12/01 10:11:05;;;;;;;9.90;1.83;;;8.70;99.90;;;;;;4979520;28;20081;-80
2021/12/01 10:13:37;;;;;;;8.65;1.90;;;8.70;99.90;;;;;;4978196;28;20190;-81
2021/12/01 10:16:05;;;;;;;15.15;2.20;;;8.80;99.90;;;;;;4978379;28;20050;-80
2021/12/01 10:18:36;;;;;;;11.77;1.63;;;8.80;99.90;;;;;;4961348;28;20066;-80
2021/12/01 10:21:05;;;;;;;13.43;1.90;;;8.90;99.90;;;;;;4985597;28;20038;-80
2021/12/01 10:23:32;;;;;;;12.00;1.90;;;8.90;99.90;;;;;;4997302;28;20140;-81
2021/12/01 10:26:07;;;;;;;12.60;2.60;;;8.90;99.90;;;;;;4997941;28;20066;-80
2021/12/01 10:28:36;;;;;;;13.95;2.25;;;8.80;99.90;;;;;;4987956;28;20042;-81
2021/12/01 10:31:02;;;;;;;14.77;2.17;;;8.70;99.90;;;;;;4984320;28;20047;-82
2021/12/01 10:33:29;;;;;;;10.68;2.15;;;8.60;99.90;;;;;;4978529;28;20465;-81
2021/12/01 10:35:56;;;;;;;13.00;1.92;;;8.50;99.90;;;;;;4993899;28;20085;-79
2021/12/01 10:38:37;;;;;;;17.10;2.53;;;8.50;99.90;;;;;;4997020;28;20097;-80
2021/12/01 10:41:13;;;;;;;11.70;1.65;;;8.50;99.90;;;;;;4981789;28;20050;-80
2021/12/01 10:43:43;;;;;;;8.43;1.50;;;8.50;99.90;;;;;;4995995;28;21025;-79
2021/12/01 10:46:12;;;;;;;12.93;1.67;;;8.60;99.90;;;;;;4988384;28;20043;-80
2021/12/01 10:48:39;;;;;;;17.20;2.17;;;8.60;99.90;;;;;;4987153;28;20050;-79
2021/12/01 10:51:08;;;;;;;13.68;2.13;;;8.60;99.90;;;;;;4992303;28;20381;-80
2021/12/01 10:53:34;;;;;;;12.23;1.85;;;8.60;99.90;;;;;;4989294;28;20107;-80
2021/12/01 10:56:02;;;;;;;8.60;1.48;;;8.60;99.90;;;;;;4987329;28;20038;-80
2021/12/01 10:58:40;;;;;;;6.57;1.77;;;8.60;99.90;;;;;;4990834;28;20039;-79
2021/12/01 11:01:19;;;;;;;6.05;1.17;;;8.50;99.90;;;;;;4985030;28;20099;-76
2021/12/01 11:03:45;;;;;;;7.85;1.75;;;8.60;99.90;;;;;;5004709;28;20042;-76
2021/12/01 11:06:21;;;;;;;9.70;1.38;;;8.60;99.90;;;;;;4981566;28;20053;-77
2021/12/01 11:09:01;;;;;;;7.97;1.60;;;8.70;99.90;;;;;;4971000;28;20552;-77
2021/12/01 11:11:43;;;;;;;11.82;2.10;;;8.70;99.90;;;;;;4985337;28;20068;-77
2021/12/01 11:14:14;;;;;;;13.80;2.13;;;8.70;99.90;;;;;;4992651;28;20073;-78
2021/12/01 11:16:42;;;;;;;8.43;1.42;;;8.80;99.90;;;;;;4992212;28;20084;-77
2021/12/01 11:19:09;;;;;;;9.35;2.00;;;8.70;99.90;;;;;;4960160;28;20054;-78
2021/12/01 11:21:37;;;;;;;10.70;2.05;;;8.70;99.90;;;;;;4970743;28;20086;-78
2021/12/01 11:24:10;;;;;;;10.10;1.77;;;8.70;99.90;;;;;;4992074;28;20050;-79
2021/12/01 11:26:37;;;;;;;12.68;2.35;;;8.70;99.90;;;;;;4994511;28;20093;-78
2021/12/01 11:29:08;;;;;;;12.57;2.10;;;8.70;99.90;;;;;;4988625;28;20459;-79
2021/12/01 11:31:40;;;;;;;16.85;2.20;;;8.70;99.90;;;;;;4974539;28;20043;-79
2021/12/01 11:34:10;;;;;;;13.75;1.90;;;8.70;99.90;;;;;;4993037;28;20050;-77
2021/12/01 11:36:42;;;;;;;10.27;2.20;;;8.90;99.90;;;;;;4993920;28;20412;-77
2021/12/01 11:39:17;;;;;;;17.65;3.20;;;8.90;99.90;;;;;;4995355;28;20457;-78
2021/12/01 11:41:43;;;;;;;13.73;2.33;;;8.90;99.90;;;;;;4994250;28;20046;-78
2021/12/01 11:44:11;;;;;;;15.75;2.70;;;8.90;99.90;;;;;;4992920;28;20030;-79
2021/12/01 11:46:37;;;;;;;13.20;2.80;;;8.80;99.90;;;;;;4996202;28;20042;-81
2021/12/01 11:49:09;;;;;;;12.75;2.58;;;8.70;99.90;;;;;;4994782;28;20044;-80
2021/12/01 11:51:44;;;;;;;18.10;2.60;;;8.70;99.90;;;;;;4994872;28;20039;-79
2021/12/01 11:54:18;;;;;;;21.13;3.70;;;8.70;99.90;;;;;;4995129;28;20050;-81
2021/12/01 11:56:58;;;;;;;15.65;2.65;;;8.70;99.90;;;;;;4984813;28;20105;-79
2021/12/01 11:59:31;;;;;;;19.20;3.10;;;8.60;99.90;;;;;;5005471;28;20043;-81
2021/12/01 12:02:02;;;;;;;19.80;3.47;;;8.50;99.90;;;;;;4978974;28;20051;-81
2021/12/01 12:04:39;;;;;;;22.50;3.05;;;8.40;99.90;;;;;;4977391;28;20046;-82
2021/12/01 12:07:11;;;;;;;14.38;2.15;;;8.40;99.90;;;;;;4978512;28;20057;-78
2021/12/01 12:09:37;;;;;;;13.43;2.75;;;8.40;99.90;;;;;;4976278;28;20038;-80
2021/12/01 12:12:13;;;;;;;12.88;2.15;;;8.30;99.90;;;;;;4974817;28;20061;-80
2021/12/01 12:14:50;;;;;;;19.60;2.83;;;8.30;99.90;;;;;;4974582;28;20105;-79
2021/12/01 12:17:35;;;;;;;13.75;2.30;;;8.30;99.90;;;;;;4960227;28;20039;-82
2021/12/01 12:20:22;;;;;;;;;;;8.30;99.90;;;;;;4974958;28;20400;-79
2021/12/01 12:22:48;;;;;;;16.67;2.40;;;8.30;99.90;;;;;;4991001;28;19917;-81
2021/12/01 12:25:38;;;;;;;11.80;2.28;;;8.40;99.90;;;;;;4980399;28;20062;-79
2021/12/01 12:28:40;;;;;;;18.90;2.58;;;8.40;99.90;;;;;;4984455;28;20041;-78
2021/12/01 12:31:26;;;;;;;18.88;3.17;;;8.50;99.90;;;;;;4926004;29;20520;-80
2021/12/01 12:34:04;;;;;;;16.33;2.55;;;8.50;99.90;;;;;;4972750;28;20081;-80
2021/12/01 12:36:49;;;;;;;14.52;2.47;;;8.50;99.90;;;;;;4984077;28;20427;-81
2021/12/01 12:39:22;;;;;;;12.68;2.40;;;8.40;99.90;;;;;;4977462;28;20050;-82
2021/12/01 12:41:54;;;;;;;12.05;2.20;;;8.30;99.90;;;;;;4976438;28;20057;-79
2021/12/01 12:44:31;;;;;;;12.80;2.38;;;8.30;99.90;;;;;;4975836;28;20053;-79
2021/12/01 12:47:03;;;;;;;8.70;1.67;;;8.20;99.90;;;;;;4959556;28;20074;-80
2021/12/01 12:49:46;;;;;;;14.57;2.30;;;8.00;99.90;;;;;;4958553;28;20039;-80
2021/12/01 12:52:27;;;;;;;9.00;1.80;;;7.80;99.90;;;;;;4974520;28;20414;-78
2021/12/01 12:54:57;;;;;;;14.10;2.13;;;7.80;99.90;;;;;;4974698;28;20047;-79
2021/12/01 12:57:25;;;;;;;12.82;1.80;;;7.80;99.90;;;;;;4972685;28;20500;-79
2021/12/01 13:00:16;;;;;;;12.20;1.85;;;7.80;99.90;;;;;;4979512;28;20042;-78
2021/12/01 13:02:42;;;;;;;13.02;1.75;;;7.90;99.90;;;;;;4973667;28;20042;-78